sensor_id;sensor_type;location;lat;lon;timestamp;P1;durP1;ratioP1;P2;durP2;ratioP2
27495;SDS011;14929;51.336;9.416;2023-04-24T00:02:22;0.82;;;0.82;;
27495;SDS011;14929;51.336;9.416;2023-04-24T00:04:50;1.27;;;1.02;;
27495;SDS011;14929;51.336;9.416;2023-04-24T00:07:19;1.23;;;0.70;;
27495;SDS011;14929;51.336;9.416;2023-04-24T00:09:47;0.60;;;0.60;;
27495;SDS011;14929;51.336;9.416;2023-04-24T00:12:15;0.68;;;0.68;;
27495;SDS011;14929;51.336;9.416;2023-04-24T00:14:42;0.82;;;0.82;;
27495;SDS011;14929;51.336;9.416;2023-04-24T00:17:10;0.70;;;0.50;;
27495;SDS011;14929;51.336;9.416;2023-04-24T00:19:37;0.60;;;0.60;;
27495;SDS011;14929;51.336;9.416;2023-04-24T00:22:05;0.68;;;0.68;;
27495;SDS011;14929;51.336;9.416;2023-04-24T00:24:34;0.60;;;0.60;;
27495;SDS011;14929;51.336;9.416;2023-04-24T00:27:01;0.93;;;0.47;;
27495;SDS011;14929;51.336;9.416;2023-04-24T00:29:29;0.43;;;0.43;;
27495;SDS011;14929;51.336;9.416;2023-04-24T00:31:56;0.55;;;0.55;;
27495;SDS011;14929;51.336;9.416;2023-04-24T00:34:24;0.50;;;0.50;;
27495;SDS011;14929;51.336;9.416;2023-04-24T00:36:51;0.60;;;0.60;;
27495;SDS011;14929;51.336;9.416;2023-04-24T00:39:20;0.45;;;0.45;;
27495;SDS011;14929;51.336;9.416;2023-04-24T00:41:49;0.43;;;0.43;;
27495;SDS011;14929;51.336;9.416;2023-04-24T00:44:17;0.57;;;0.57;;
27495;SDS011;14929;51.336;9.416;2023-04-24T00:46:45;0.50;;;0.50;;
27495;SDS011;14929;51.336;9.416;2023-04-24T00:49:16;0.60;;;0.60;;
27495;SDS011;14929;51.336;9.416;2023-04-24T00:51:45;0.57;;;0.57;;
27495;SDS011;14929;51.336;9.416;2023-04-24T00:54:14;0.80;;;0.80;;
27495;SDS011;14929;51.336;9.416;2023-04-24T00:56:42;0.68;;;0.68;;
27495;SDS011;14929;51.336;9.416;2023-04-24T00:59:11;0.70;;;0.70;;
27495;SDS011;14929;51.336;9.416;2023-04-24T01:01:39;0.70;;;0.70;;
27495;SDS011;14929;51.336;9.416;2023-04-24T01:04:07;0.80;;;0.80;;
27495;SDS011;14929;51.336;9.416;2023-04-24T01:06:36;0.50;;;0.50;;
27495;SDS011;14929;51.336;9.416;2023-04-24T01:09:06;0.60;;;0.60;;
27495;SDS011;14929;51.336;9.416;2023-04-24T01:11:34;0.80;;;0.80;;
27495;SDS011;14929;51.336;9.416;2023-04-24T01:14:02;0.73;;;0.65;;
27495;SDS011;14929;51.336;9.416;2023-04-24T01:16:30;0.80;;;0.80;;
27495;SDS011;14929;51.336;9.416;2023-04-24T01:18:58;0.70;;;0.70;;
27495;SDS011;14929;51.336;9.416;2023-04-24T01:21:26;0.80;;;0.80;;
27495;SDS011;14929;51.336;9.416;2023-04-24T01:23:55;0.88;;;0.80;;
27495;SDS011;14929;51.336;9.416;2023-04-24T01:26:23;0.80;;;0.73;;
27495;SDS011;14929;51.336;9.416;2023-04-24T01:28:50;0.90;;;0.70;;
27495;SDS011;14929;51.336;9.416;2023-04-24T01:31:18;0.80;;;0.80;;
27495;SDS011;14929;51.336;9.416;2023-04-24T01:33:46;0.98;;;0.98;;
27495;SDS011;14929;51.336;9.416;2023-04-24T01:36:14;0.70;;;0.70;;
27495;SDS011;14929;51.336;9.416;2023-04-24T01:38:41;0.55;;;0.55;;
27495;SDS011;14929;51.336;9.416;2023-04-24T01:41:11;0.73;;;0.73;;
27495;SDS011;14929;51.336;9.416;2023-04-24T01:43:38;0.70;;;0.70;;
27495;SDS011;14929;51.336;9.416;2023-04-24T01:46:06;0.70;;;0.70;;
27495;SDS011;14929;51.336;9.416;2023-04-24T01:48:34;0.82;;;0.82;;
27495;SDS011;14929;51.336;9.416;2023-04-24T01:51:02;1.02;;;1.00;;
27495;SDS011;14929;51.336;9.416;2023-04-24T01:53:29;0.70;;;0.70;;
27495;SDS011;14929;51.336;9.416;2023-04-24T01:55:57;0.70;;;0.70;;
27495;SDS011;14929;51.336;9.416;2023-04-24T01:58:26;1.10;;;1.00;;
27495;SDS011;14929;51.336;9.416;2023-04-24T02:00:55;0.80;;;0.80;;
27495;SDS011;14929;51.336;9.416;2023-04-24T02:03:23;0.80;;;0.80;;
27495;SDS011;14929;51.336;9.416;2023-04-24T02:05:52;1.02;;;1.00;;
27495;SDS011;14929;51.336;9.416;2023-04-24T02:08:19;1.23;;;1.13;;
27495;SDS011;14929;51.336;9.416;2023-04-24T02:10:47;0.90;;;0.90;;
27495;SDS011;14929;51.336;9.416;2023-04-24T02:13:14;1.60;;;1.20;;
27495;SDS011;14929;51.336;9.416;2023-04-24T02:15:43;1.85;;;1.15;;
27495;SDS011;14929;51.336;9.416;2023-04-24T02:18:11;1.05;;;1.00;;
27495;SDS011;14929;51.336;9.416;2023-04-24T02:20:38;1.27;;;1.08;;
27495;SDS011;14929;51.336;9.416;2023-04-24T02:23:06;1.52;;;1.20;;
27495;SDS011;14929;51.336;9.416;2023-04-24T02:25:33;1.38;;;1.23;;
27495;SDS011;14929;51.336;9.416;2023-04-24T02:28:01;1.15;;;1.10;;
27495;SDS011;14929;51.336;9.416;2023-04-24T02:30:28;1.42;;;1.33;;
27495;SDS011;14929;51.336;9.416;2023-04-24T02:32:57;1.50;;;1.40;;
27495;SDS011;14929;51.336;9.416;2023-04-24T02:35:25;1.10;;;1.10;;
27495;SDS011;14929;51.336;9.416;2023-04-24T02:37:52;1.45;;;1.45;;
27495;SDS011;14929;51.336;9.416;2023-04-24T02:40:20;1.35;;;1.30;;
27495;SDS011;14929;51.336;9.416;2023-04-24T02:42:47;1.20;;;1.10;;
27495;SDS011;14929;51.336;9.416;2023-04-24T02:45:15;1.05;;;1.05;;
27495;SDS011;14929;51.336;9.416;2023-04-24T02:47:42;1.52;;;1.42;;
27495;SDS011;14929;51.336;9.416;2023-04-24T02:50:12;1.40;;;1.30;;
27495;SDS011;14929;51.336;9.416;2023-04-24T02:52:39;1.42;;;0.95;;
27495;SDS011;14929;51.336;9.416;2023-04-24T02:55:07;1.75;;;1.45;;
27495;SDS011;14929;51.336;9.416;2023-04-24T02:57:34;1.40;;;1.30;;
27495;SDS011;14929;51.336;9.416;2023-04-24T03:00:02;0.82;;;0.82;;
27495;SDS011;14929;51.336;9.416;2023-04-24T03:02:32;0.98;;;0.98;;
27495;SDS011;14929;51.336;9.416;2023-04-24T03:04:59;1.00;;;1.00;;
27495;SDS011;14929;51.336;9.416;2023-04-24T03:07:28;1.23;;;1.10;;
27495;SDS011;14929;51.336;9.416;2023-04-24T03:09:57;1.08;;;1.08;;
27495;SDS011;14929;51.336;9.416;2023-04-24T03:12:24;1.98;;;0.98;;
27495;SDS011;14929;51.336;9.416;2023-04-24T03:14:52;1.08;;;1.08;;
27495;SDS011;14929;51.336;9.416;2023-04-24T03:17:19;2.00;;;1.92;;
27495;SDS011;14929;51.336;9.416;2023-04-24T03:19:47;1.10;;;1.10;;
27495;SDS011;14929;51.336;9.416;2023-04-24T03:22:14;1.15;;;1.05;;
27495;SDS011;14929;51.336;9.416;2023-04-24T03:24:43;3.78;;;1.75;;
27495;SDS011;14929;51.336;9.416;2023-04-24T03:27:11;1.25;;;1.15;;
27495;SDS011;14929;51.336;9.416;2023-04-24T03:29:38;3.70;;;1.05;;
27495;SDS011;14929;51.336;9.416;2023-04-24T03:32:06;0.90;;;0.90;;
27495;SDS011;14929;51.336;9.416;2023-04-24T03:34:33;1.20;;;1.20;;
27495;SDS011;14929;51.336;9.416;2023-04-24T03:37:01;0.82;;;0.82;;
27495;SDS011;14929;51.336;9.416;2023-04-24T03:39:28;1.02;;;1.02;;
27495;SDS011;14929;51.336;9.416;2023-04-24T03:41:57;2.05;;;1.10;;
27495;SDS011;14929;51.336;9.416;2023-04-24T03:44:25;1.20;;;1.10;;
27495;SDS011;14929;51.336;9.416;2023-04-24T03:46:52;1.13;;;1.05;;
27495;SDS011;14929;51.336;9.416;2023-04-24T03:49:20;1.17;;;1.08;;
27495;SDS011;14929;51.336;9.416;2023-04-24T03:51:47;0.98;;;0.98;;
27495;SDS011;14929;51.336;9.416;2023-04-24T03:54:15;1.10;;;1.10;;
27495;SDS011;14929;51.336;9.416;2023-04-24T03:56:43;0.90;;;0.90;;
27495;SDS011;14929;51.336;9.416;2023-04-24T03:59:12;0.90;;;0.90;;
27495;SDS011;14929;51.336;9.416;2023-04-24T04:01:39;0.90;;;0.90;;
27495;SDS011;14929;51.336;9.416;2023-04-24T04:04:07;1.40;;;1.30;;
27495;SDS011;14929;51.336;9.416;2023-04-24T04:06:35;0.95;;;0.93;;
27495;SDS011;14929;51.336;9.416;2023-04-24T04:09:02;1.20;;;1.02;;
27495;SDS011;14929;51.336;9.416;2023-04-24T04:11:30;0.80;;;0.80;;
27495;SDS011;14929;51.336;9.416;2023-04-24T04:13:57;1.67;;;1.00;;
27495;SDS011;14929;51.336;9.416;2023-04-24T04:16:26;1.00;;;1.00;;
27495;SDS011;14929;51.336;9.416;2023-04-24T04:18:54;1.10;;;0.90;;
27495;SDS011;14929;51.336;9.416;2023-04-24T04:21:21;1.00;;;1.00;;
27495;SDS011;14929;51.336;9.416;2023-04-24T04:23:49;1.00;;;1.00;;
27495;SDS011;14929;51.336;9.416;2023-04-24T04:26:16;0.90;;;0.90;;
27495;SDS011;14929;51.336;9.416;2023-04-24T04:28:46;0.90;;;0.90;;
27495;SDS011;14929;51.336;9.416;2023-04-24T04:31:14;1.00;;;0.90;;
27495;SDS011;14929;51.336;9.416;2023-04-24T04:33:42;0.55;;;0.55;;
27495;SDS011;14929;51.336;9.416;2023-04-24T04:36:10;0.80;;;0.80;;
27495;SDS011;14929;51.336;9.416;2023-04-24T04:38:37;0.73;;;0.73;;
27495;SDS011;14929;51.336;9.416;2023-04-24T04:41:05;0.80;;;0.80;;
27495;SDS011;14929;51.336;9.416;2023-04-24T04:43:33;1.10;;;1.10;;
27495;SDS011;14929;51.336;9.416;2023-04-24T04:46:01;0.90;;;0.90;;
27495;SDS011;14929;51.336;9.416;2023-04-24T04:48:29;0.88;;;0.88;;
27495;SDS011;14929;51.336;9.416;2023-04-24T04:50:58;0.73;;;0.73;;
27495;SDS011;14929;51.336;9.416;2023-04-24T04:53:26;0.70;;;0.70;;
27495;SDS011;14929;51.336;9.416;2023-04-24T04:55:53;0.85;;;0.70;;
27495;SDS011;14929;51.336;9.416;2023-04-24T04:58:21;0.93;;;0.93;;
27495;SDS011;14929;51.336;9.416;2023-04-24T05:00:48;0.85;;;0.85;;
27495;SDS011;14929;51.336;9.416;2023-04-24T05:03:17;1.25;;;1.15;;
27495;SDS011;14929;51.336;9.416;2023-04-24T05:05:44;0.95;;;0.95;;
27495;SDS011;14929;51.336;9.416;2023-04-24T05:08:13;1.63;;;0.90;;
27495;SDS011;14929;51.336;9.416;2023-04-24T05:10:41;0.75;;;0.75;;
27495;SDS011;14929;51.336;9.416;2023-04-24T05:13:08;0.98;;;0.82;;
27495;SDS011;14929;51.336;9.416;2023-04-24T05:15:36;0.85;;;0.85;;
27495;SDS011;14929;51.336;9.416;2023-04-24T05:18:03;0.82;;;0.82;;
27495;SDS011;14929;51.336;9.416;2023-04-24T05:20:31;1.08;;;1.00;;
27495;SDS011;14929;51.336;9.416;2023-04-24T05:22:58;0.70;;;0.70;;
27495;SDS011;14929;51.336;9.416;2023-04-24T05:25:27;0.88;;;0.88;;
27495;SDS011;14929;51.336;9.416;2023-04-24T05:27:57;0.80;;;0.80;;
27495;SDS011;14929;51.336;9.416;2023-04-24T05:30:24;0.60;;;0.60;;
27495;SDS011;14929;51.336;9.416;2023-04-24T05:32:52;1.20;;;1.10;;
27495;SDS011;14929;51.336;9.416;2023-04-24T05:35:20;0.77;;;0.77;;
27495;SDS011;14929;51.336;9.416;2023-04-24T05:37:48;0.70;;;0.70;;
27495;SDS011;14929;51.336;9.416;2023-04-24T05:40:15;0.80;;;0.80;;
27495;SDS011;14929;51.336;9.416;2023-04-24T05:42:44;1.00;;;0.90;;
27495;SDS011;14929;51.336;9.416;2023-04-24T05:45:12;0.70;;;0.70;;
27495;SDS011;14929;51.336;9.416;2023-04-24T05:47:41;1.08;;;1.08;;
27495;SDS011;14929;51.336;9.416;2023-04-24T05:50:10;1.10;;;1.00;;
27495;SDS011;14929;51.336;9.416;2023-04-24T05:52:37;1.30;;;1.20;;
27495;SDS011;14929;51.336;9.416;2023-04-24T05:55:05;1.20;;;1.08;;
27495;SDS011;14929;51.336;9.416;2023-04-24T05:57:33;1.08;;;1.08;;
27495;SDS011;14929;51.336;9.416;2023-04-24T06:00:02;0.90;;;0.90;;
27495;SDS011;14929;51.336;9.416;2023-04-24T06:02:32;1.38;;;1.27;;
27495;SDS011;14929;51.336;9.416;2023-04-24T06:05:00;0.90;;;0.90;;
27495;SDS011;14929;51.336;9.416;2023-04-24T06:07:27;1.48;;;1.30;;
27495;SDS011;14929;51.336;9.416;2023-04-24T06:09:55;1.50;;;1.40;;
27495;SDS011;14929;51.336;9.416;2023-04-24T06:12:22;1.60;;;1.50;;
27495;SDS011;14929;51.336;9.416;2023-04-24T06:14:50;1.60;;;1.50;;
27495;SDS011;14929;51.336;9.416;2023-04-24T06:17:20;1.17;;;1.13;;
27495;SDS011;14929;51.336;9.416;2023-04-24T06:19:48;1.15;;;1.15;;
27495;SDS011;14929;51.336;9.416;2023-04-24T06:22:15;1.90;;;1.80;;
27495;SDS011;14929;51.336;9.416;2023-04-24T06:24:43;2.40;;;2.20;;
27495;SDS011;14929;51.336;9.416;2023-04-24T06:27:10;3.70;;;2.60;;
27495;SDS011;14929;51.336;9.416;2023-04-24T06:29:38;1.90;;;1.80;;
27495;SDS011;14929;51.336;9.416;2023-04-24T06:32:05;2.40;;;2.20;;
27495;SDS011;14929;51.336;9.416;2023-04-24T06:34:34;2.45;;;2.25;;
27495;SDS011;14929;51.336;9.416;2023-04-24T06:37:01;2.50;;;2.30;;
27495;SDS011;14929;51.336;9.416;2023-04-24T06:39:29;3.30;;;3.00;;
27495;SDS011;14929;51.336;9.416;2023-04-24T06:41:56;3.55;;;3.25;;
27495;SDS011;14929;51.336;9.416;2023-04-24T06:44:24;2.33;;;2.22;;
27495;SDS011;14929;51.336;9.416;2023-04-24T06:46:51;2.83;;;2.60;;
27495;SDS011;14929;51.336;9.416;2023-04-24T06:49:19;2.38;;;2.17;;
27495;SDS011;14929;51.336;9.416;2023-04-24T06:51:48;2.63;;;2.53;;
27495;SDS011;14929;51.336;9.416;2023-04-24T06:54:15;1.77;;;1.67;;
27495;SDS011;14929;51.336;9.416;2023-04-24T06:56:43;2.22;;;2.13;;
27495;SDS011;14929;51.336;9.416;2023-04-24T06:59:12;2.33;;;2.13;;
27495;SDS011;14929;51.336;9.416;2023-04-24T07:01:40;2.22;;;2.13;;
27495;SDS011;14929;51.336;9.416;2023-04-24T07:04:07;2.25;;;2.15;;
27495;SDS011;14929;51.336;9.416;2023-04-24T07:06:35;2.60;;;2.40;;
27495;SDS011;14929;51.336;9.416;2023-04-24T07:09:04;2.28;;;2.08;;
27495;SDS011;14929;51.336;9.416;2023-04-24T07:11:34;2.97;;;2.75;;
27495;SDS011;14929;51.336;9.416;2023-04-24T07:14:03;2.67;;;2.47;;
27495;SDS011;14929;51.336;9.416;2023-04-24T07:16:30;2.10;;;2.00;;
27495;SDS011;14929;51.336;9.416;2023-04-24T07:18:58;2.05;;;1.92;;
27495;SDS011;14929;51.336;9.416;2023-04-24T07:21:26;1.42;;;1.30;;
27495;SDS011;14929;51.336;9.416;2023-04-24T07:23:53;1.55;;;1.45;;
27495;SDS011;14929;51.336;9.416;2023-04-24T07:26:22;2.13;;;2.00;;
27495;SDS011;14929;51.336;9.416;2023-04-24T07:28:50;1.65;;;1.55;;
27495;SDS011;14929;51.336;9.416;2023-04-24T07:31:17;2.10;;;2.00;;
27495;SDS011;14929;51.336;9.416;2023-04-24T07:33:45;1.75;;;1.60;;
27495;SDS011;14929;51.336;9.416;2023-04-24T07:36:12;2.60;;;2.30;;
27495;SDS011;14929;51.336;9.416;2023-04-24T07:38:43;1.58;;;1.48;;
27495;SDS011;14929;51.336;9.416;2023-04-24T07:41:11;1.92;;;1.83;;
27495;SDS011;14929;51.336;9.416;2023-04-24T07:43:40;2.50;;;2.30;;
27495;SDS011;14929;51.336;9.416;2023-04-24T07:46:08;2.78;;;2.50;;
27495;SDS011;14929;51.336;9.416;2023-04-24T07:48:36;5.93;;;2.88;;
27495;SDS011;14929;51.336;9.416;2023-04-24T07:51:03;2.47;;;1.70;;
27495;SDS011;14929;51.336;9.416;2023-04-24T07:53:31;3.08;;;1.40;;
27495;SDS011;14929;51.336;9.416;2023-04-24T07:55:58;2.40;;;2.20;;
27495;SDS011;14929;51.336;9.416;2023-04-24T07:58:26;2.05;;;1.70;;
27495;SDS011;14929;51.336;9.416;2023-04-24T08:00:55;2.72;;;2.53;;
27495;SDS011;14929;51.336;9.416;2023-04-24T08:03:22;1.65;;;1.55;;
27495;SDS011;14929;51.336;9.416;2023-04-24T08:05:50;3.35;;;2.72;;
27495;SDS011;14929;51.336;9.416;2023-04-24T08:08:18;2.10;;;2.00;;
27495;SDS011;14929;51.336;9.416;2023-04-24T08:10:48;2.28;;;1.67;;
27495;SDS011;14929;51.336;9.416;2023-04-24T08:13:16;2.15;;;2.03;;
27495;SDS011;14929;51.336;9.416;2023-04-24T08:15:43;1.50;;;1.40;;
27495;SDS011;14929;51.336;9.416;2023-04-24T08:18:12;1.77;;;1.67;;
27495;SDS011;14929;51.336;9.416;2023-04-24T08:20:40;1.70;;;1.60;;
27495;SDS011;14929;51.336;9.416;2023-04-24T08:23:08;2.08;;;1.98;;
27495;SDS011;14929;51.336;9.416;2023-04-24T08:25:36;2.75;;;2.20;;
27495;SDS011;14929;51.336;9.416;2023-04-24T08:28:05;1.70;;;1.60;;
27495;SDS011;14929;51.336;9.416;2023-04-24T08:30:33;1.70;;;1.60;;
27495;SDS011;14929;51.336;9.416;2023-04-24T08:33:01;1.50;;;1.40;;
27495;SDS011;14929;51.336;9.416;2023-04-24T08:35:29;1.70;;;1.60;;
27495;SDS011;14929;51.336;9.416;2023-04-24T08:37:57;2.00;;;1.80;;
27495;SDS011;14929;51.336;9.416;2023-04-24T08:40:27;1.80;;;1.70;;
27495;SDS011;14929;51.336;9.416;2023-04-24T08:42:55;2.03;;;1.90;;
27495;SDS011;14929;51.336;9.416;2023-04-24T08:45:33;1.90;;;1.70;;
27495;SDS011;14929;51.336;9.416;2023-04-24T08:48:00;2.72;;;2.53;;
27495;SDS011;14929;51.336;9.416;2023-04-24T08:50:30;2.05;;;1.58;;
27495;SDS011;14929;51.336;9.416;2023-04-24T08:53:00;1.73;;;1.63;;
27495;SDS011;14929;51.336;9.416;2023-04-24T08:55:28;2.13;;;1.95;;
27495;SDS011;14929;51.336;9.416;2023-04-24T08:57:57;2.03;;;1.92;;
27495;SDS011;14929;51.336;9.416;2023-04-24T09:00:26;2.63;;;2.17;;
27495;SDS011;14929;51.336;9.416;2023-04-24T09:02:54;1.48;;;1.38;;
27495;SDS011;14929;51.336;9.416;2023-04-24T09:05:22;1.85;;;1.75;;
27495;SDS011;14929;51.336;9.416;2023-04-24T09:07:53;1.52;;;1.42;;
27495;SDS011;14929;51.336;9.416;2023-04-24T09:10:23;2.70;;;1.52;;
27495;SDS011;14929;51.336;9.416;2023-04-24T09:12:51;2.00;;;1.83;;
27495;SDS011;14929;51.336;9.416;2023-04-24T09:15:20;1.60;;;1.50;;
27495;SDS011;14929;51.336;9.416;2023-04-24T09:17:47;1.75;;;1.65;;
27495;SDS011;14929;51.336;9.416;2023-04-24T09:20:15;1.70;;;1.60;;
27495;SDS011;14929;51.336;9.416;2023-04-24T09:22:42;1.88;;;1.77;;
27495;SDS011;14929;51.336;9.416;2023-04-24T09:25:13;2.00;;;1.83;;
27495;SDS011;14929;51.336;9.416;2023-04-24T09:27:41;1.60;;;1.50;;
27495;SDS011;14929;51.336;9.416;2023-04-24T09:30:10;1.50;;;1.40;;
27495;SDS011;14929;51.336;9.416;2023-04-24T09:32:39;1.90;;;1.42;;
27495;SDS011;14929;51.336;9.416;2023-04-24T09:35:07;1.50;;;1.40;;
27495;SDS011;14929;51.336;9.416;2023-04-24T09:37:37;1.48;;;1.38;;
27495;SDS011;14929;51.336;9.416;2023-04-24T09:40:14;1.40;;;1.30;;
27495;SDS011;14929;51.336;9.416;2023-04-24T09:42:44;1.77;;;1.60;;
27495;SDS011;14929;51.336;9.416;2023-04-24T09:45:12;1.58;;;1.48;;
27495;SDS011;14929;51.336;9.416;2023-04-24T09:47:40;1.23;;;1.23;;
27495;SDS011;14929;51.336;9.416;2023-04-24T09:50:15;1.90;;;1.50;;
27495;SDS011;14929;51.336;9.416;2023-04-24T09:52:43;1.45;;;1.35;;
27495;SDS011;14929;51.336;9.416;2023-04-24T09:55:15;0.98;;;0.98;;
27495;SDS011;14929;51.336;9.416;2023-04-24T09:57:49;1.30;;;1.30;;
27495;SDS011;14929;51.336;9.416;2023-04-24T10:00:18;1.27;;;1.20;;
27495;SDS011;14929;51.336;9.416;2023-04-24T10:02:58;1.40;;;1.30;;
27495;SDS011;14929;51.336;9.416;2023-04-24T10:05:28;1.17;;;0.85;;
27495;SDS011;14929;51.336;9.416;2023-04-24T10:07:57;0.88;;;0.88;;
27495;SDS011;14929;51.336;9.416;2023-04-24T10:10:30;1.65;;;1.55;;
27495;SDS011;14929;51.336;9.416;2023-04-24T10:12:59;0.95;;;0.95;;
27495;SDS011;14929;51.336;9.416;2023-04-24T10:15:26;1.30;;;1.20;;
27495;SDS011;14929;51.336;9.416;2023-04-24T10:17:54;3.15;;;2.00;;
27495;SDS011;14929;51.336;9.416;2023-04-24T10:20:24;1.17;;;1.17;;
27495;SDS011;14929;51.336;9.416;2023-04-24T10:22:54;1.13;;;1.10;;
27495;SDS011;14929;51.336;9.416;2023-04-24T10:25:25;1.50;;;1.40;;
27495;SDS011;14929;51.336;9.416;2023-04-24T10:27:55;1.45;;;1.10;;
27495;SDS011;14929;51.336;9.416;2023-04-24T10:30:25;1.25;;;1.17;;
27495;SDS011;14929;51.336;9.416;2023-04-24T10:32:54;0.88;;;0.88;;
27495;SDS011;14929;51.336;9.416;2023-04-24T10:35:22;1.33;;;1.23;;
27495;SDS011;14929;51.336;9.416;2023-04-24T10:37:54;1.10;;;1.00;;
27495;SDS011;14929;51.336;9.416;2023-04-24T10:40:34;1.20;;;1.15;;
27495;SDS011;14929;51.336;9.416;2023-04-24T10:43:04;1.30;;;1.20;;
27495;SDS011;14929;51.336;9.416;2023-04-24T10:45:34;1.20;;;0.88;;
27495;SDS011;14929;51.336;9.416;2023-04-24T10:48:03;0.80;;;0.80;;
27495;SDS011;14929;51.336;9.416;2023-04-24T10:50:42;0.90;;;0.90;;
27495;SDS011;14929;51.336;9.416;2023-04-24T10:53:13;0.85;;;0.85;;
27495;SDS011;14929;51.336;9.416;2023-04-24T10:55:43;0.75;;;0.70;;
27495;SDS011;14929;51.336;9.416;2023-04-24T10:58:14;3.88;;;1.10;;
27495;SDS011;14929;51.336;9.416;2023-04-24T11:00:43;0.98;;;0.98;;
27495;SDS011;14929;51.336;9.416;2023-04-24T11:03:23;0.80;;;0.80;;
27495;SDS011;14929;51.336;9.416;2023-04-24T11:05:57;0.70;;;0.70;;
27495;SDS011;14929;51.336;9.416;2023-04-24T11:08:27;0.90;;;0.90;;
27495;SDS011;14929;51.336;9.416;2023-04-24T11:11:08;0.82;;;0.82;;
27495;SDS011;14929;51.336;9.416;2023-04-24T11:16:37;0.50;;;0.50;;
27495;SDS011;14929;51.336;9.416;2023-04-24T11:19:17;0.50;;;0.50;;
27495;SDS011;14929;51.336;9.416;2023-04-24T11:21:49;0.43;;;0.43;;
27495;SDS011;14929;51.336;9.416;2023-04-24T11:24:26;0.68;;;0.68;;
27495;SDS011;14929;51.336;9.416;2023-04-24T11:26:59;0.50;;;0.50;;
27495;SDS011;14929;51.336;9.416;2023-04-24T11:29:41;0.50;;;0.50;;
27495;SDS011;14929;51.336;9.416;2023-04-24T11:32:14;0.50;;;0.50;;
27495;SDS011;14929;51.336;9.416;2023-04-24T11:34:45;1.35;;;1.27;;
27495;SDS011;14929;51.336;9.416;2023-04-24T11:37:13;1.73;;;1.55;;
27495;SDS011;14929;51.336;9.416;2023-04-24T11:39:41;1.38;;;1.27;;
27495;SDS011;14929;51.336;9.416;2023-04-24T11:42:09;5.82;;;1.00;;
27495;SDS011;14929;51.336;9.416;2023-04-24T11:44:36;0.65;;;0.65;;
27495;SDS011;14929;51.336;9.416;2023-04-24T11:47:06;0.40;;;0.40;;
27495;SDS011;14929;51.336;9.416;2023-04-24T11:49:34;0.40;;;0.40;;
27495;SDS011;14929;51.336;9.416;2023-04-24T11:52:03;0.50;;;0.50;;
27495;SDS011;14929;51.336;9.416;2023-04-24T11:54:31;0.60;;;0.60;;
27495;SDS011;14929;51.336;9.416;2023-04-24T11:56:58;0.30;;;0.30;;
27495;SDS011;14929;51.336;9.416;2023-04-24T11:59:26;0.47;;;0.47;;
27495;SDS011;14929;51.336;9.416;2023-04-24T12:01:53;0.52;;;0.52;;
27495;SDS011;14929;51.336;9.416;2023-04-24T12:04:22;0.30;;;0.30;;
27495;SDS011;14929;51.336;9.416;2023-04-24T12:06:59;0.40;;;0.40;;
27495;SDS011;14929;51.336;9.416;2023-04-24T12:09:27;0.40;;;0.40;;
27495;SDS011;14929;51.336;9.416;2023-04-24T12:11:55;0.30;;;0.30;;
27495;SDS011;14929;51.336;9.416;2023-04-24T12:14:23;0.40;;;0.40;;
27495;SDS011;14929;51.336;9.416;2023-04-24T12:16:50;0.40;;;0.40;;
27495;SDS011;14929;51.336;9.416;2023-04-24T12:19:21;0.28;;;0.28;;
27495;SDS011;14929;51.336;9.416;2023-04-24T12:22:00;0.30;;;0.30;;
27495;SDS011;14929;51.336;9.416;2023-04-24T12:24:28;0.35;;;0.35;;
27495;SDS011;14929;51.336;9.416;2023-04-24T12:26:56;0.45;;;0.40;;
27495;SDS011;14929;51.336;9.416;2023-04-24T12:29:24;0.30;;;0.30;;
27495;SDS011;14929;51.336;9.416;2023-04-24T12:31:52;1.15;;;1.10;;
27495;SDS011;14929;51.336;9.416;2023-04-24T12:34:20;0.50;;;0.50;;
27495;SDS011;14929;51.336;9.416;2023-04-24T12:36:51;1.10;;;1.02;;
27495;SDS011;14929;51.336;9.416;2023-04-24T12:39:19;1.50;;;1.38;;
27495;SDS011;14929;51.336;9.416;2023-04-24T12:41:50;1.83;;;1.60;;
27495;SDS011;14929;51.336;9.416;2023-04-24T12:44:28;1.08;;;1.08;;
27495;SDS011;14929;51.336;9.416;2023-04-24T12:46:57;1.13;;;0.93;;
27495;SDS011;14929;51.336;9.416;2023-04-24T12:49:26;0.80;;;0.80;;
27495;SDS011;14929;51.336;9.416;2023-04-24T12:51:53;1.30;;;1.20;;
27495;SDS011;14929;51.336;9.416;2023-04-24T12:54:21;1.10;;;1.00;;
27495;SDS011;14929;51.336;9.416;2023-04-24T12:56:49;0.50;;;0.50;;
27495;SDS011;14929;51.336;9.416;2023-04-24T12:59:16;0.95;;;0.95;;
27495;SDS011;14929;51.336;9.416;2023-04-24T13:01:44;0.60;;;0.60;;
27495;SDS011;14929;51.336;9.416;2023-04-24T13:04:11;0.40;;;0.40;;
27495;SDS011;14929;51.336;9.416;2023-04-24T13:06:40;0.30;;;0.30;;
27495;SDS011;14929;51.336;9.416;2023-04-24T13:09:08;0.55;;;0.55;;
27495;SDS011;14929;51.336;9.416;2023-04-24T13:11:36;0.70;;;0.70;;
27495;SDS011;14929;51.336;9.416;2023-04-24T13:14:03;0.50;;;0.50;;
27495;SDS011;14929;51.336;9.416;2023-04-24T13:16:31;0.40;;;0.40;;
27495;SDS011;14929;51.336;9.416;2023-04-24T13:18:58;0.32;;;0.32;;
27495;SDS011;14929;51.336;9.416;2023-04-24T13:21:26;0.40;;;0.40;;
27495;SDS011;14929;51.336;9.416;2023-04-24T13:23:55;0.30;;;0.30;;
27495;SDS011;14929;51.336;9.416;2023-04-24T13:26:22;0.40;;;0.40;;
27495;SDS011;14929;51.336;9.416;2023-04-24T13:28:50;0.50;;;0.50;;
27495;SDS011;14929;51.336;9.416;2023-04-24T13:31:17;0.63;;;0.63;;
27495;SDS011;14929;51.336;9.416;2023-04-24T13:33:45;0.50;;;0.50;;
27495;SDS011;14929;51.336;9.416;2023-04-24T13:36:12;0.50;;;0.50;;
27495;SDS011;14929;51.336;9.416;2023-04-24T13:38:40;0.40;;;0.40;;
27495;SDS011;14929;51.336;9.416;2023-04-24T13:41:09;0.28;;;0.28;;
27495;SDS011;14929;51.336;9.416;2023-04-24T13:43:37;0.32;;;0.32;;
27495;SDS011;14929;51.336;9.416;2023-04-24T13:46:06;0.68;;;0.65;;
27495;SDS011;14929;51.336;9.416;2023-04-24T13:48:34;0.60;;;0.60;;
27495;SDS011;14929;51.336;9.416;2023-04-24T13:51:01;0.60;;;0.60;;
27495;SDS011;14929;51.336;9.416;2023-04-24T13:53:29;0.50;;;0.50;;
27495;SDS011;14929;51.336;9.416;2023-04-24T13:55:57;0.90;;;0.63;;
27495;SDS011;14929;51.336;9.416;2023-04-24T13:58:26;0.70;;;0.70;;
27495;SDS011;14929;51.336;9.416;2023-04-24T14:00:54;0.68;;;0.68;;
27495;SDS011;14929;51.336;9.416;2023-04-24T14:03:21;0.73;;;0.70;;
27495;SDS011;14929;51.336;9.416;2023-04-24T14:05:48;0.70;;;0.70;;
27495;SDS011;14929;51.336;9.416;2023-04-24T14:08:16;0.50;;;0.50;;
27495;SDS011;14929;51.336;9.416;2023-04-24T14:10:43;0.50;;;0.50;;
27495;SDS011;14929;51.336;9.416;2023-04-24T14:13:11;0.60;;;0.60;;
27495;SDS011;14929;51.336;9.416;2023-04-24T14:15:40;0.70;;;0.70;;
27495;SDS011;14929;51.336;9.416;2023-04-24T14:18:07;0.68;;;0.68;;
27495;SDS011;14929;51.336;9.416;2023-04-24T14:20:35;0.75;;;0.75;;
27495;SDS011;14929;51.336;9.416;2023-04-24T14:23:03;0.60;;;0.60;;
27495;SDS011;14929;51.336;9.416;2023-04-24T14:25:30;0.73;;;0.73;;
27495;SDS011;14929;51.336;9.416;2023-04-24T14:27:58;1.00;;;1.00;;
27495;SDS011;14929;51.336;9.416;2023-04-24T14:30:25;0.95;;;0.95;;
27495;SDS011;14929;51.336;9.416;2023-04-24T14:32:54;1.02;;;1.00;;
27495;SDS011;14929;51.336;9.416;2023-04-24T14:35:21;1.10;;;1.10;;
27495;SDS011;14929;51.336;9.416;2023-04-24T14:37:49;1.10;;;1.10;;
27495;SDS011;14929;51.336;9.416;2023-04-24T14:40:16;1.02;;;1.02;;
27495;SDS011;14929;51.336;9.416;2023-04-24T14:42:44;1.40;;;1.30;;
27495;SDS011;14929;51.336;9.416;2023-04-24T14:45:11;2.55;;;1.20;;
27495;SDS011;14929;51.336;9.416;2023-04-24T14:47:39;2.35;;;1.70;;
27495;SDS011;14929;51.336;9.416;2023-04-24T14:50:09;1.52;;;1.40;;
27495;SDS011;14929;51.336;9.416;2023-04-24T14:52:37;1.80;;;1.70;;
27495;SDS011;14929;51.336;9.416;2023-04-24T14:55:05;1.35;;;1.30;;
27495;SDS011;14929;51.336;9.416;2023-04-24T14:57:33;1.52;;;1.42;;
27495;SDS011;14929;51.336;9.416;2023-04-24T15:00:01;5.70;;;2.20;;